Upstream stations:
Downstream station:
SHEF ID: CDNT2 Canadian Rv nr Canadian, TX
STATION TYPE:
Regulating: Stage = 8.00, Flow = 5231
STAGE RIV-FLOW BAT-LOAD
ft cfs volt
Ccp-Rev Ccp-Rev Ccp-Rev
(US/Central)
05/19 00:00 1.10 28 12.41
05/19 01:00 1.16 34 12.33
05/19 02:00 1.18 37 12.33
05/19 03:00 1.19 38 12.33
05/19 04:00 1.19 38 12.33
05/19 05:00 1.18 37 12.25
05/19 06:00 1.19 38 12.25
05/19 07:00 1.19 38 12.17
05/19 08:00 1.19 38 12.25
05/19 09:00 1.19 38 12.25
05/19 10:00 1.21 40 12.41
05/19 11:00 1.21 40 12.73
05/19 12:00 1.24 43 12.97
05/19 13:00 1.23 42 13.05
05/19 14:00 1.23 42 13.13
05/19 15:00 1.24 43 13.05
05/19 16:00 1.22 41 13.05
05/19 17:00 1.21 40 12.89
05/19 18:00 1.21 40 12.65
05/19 19:00 1.21 40 12.49
05/19 20:00 1.21 40 12.49
05/19 21:00 1.21 40 12.41
05/19 22:00 1.21 40 12.41
05/19 23:00 ---- ---- ----